sensor_id;sensor_type;location;lat;lon;timestamp;pressure;altitude;pressure_sealevel;temperature;humidity
57376;BME280;44805;45.048;5.062;2023-04-30T00:00:25;99559.47;;;16.33;76.63
57376;BME280;44805;45.048;5.062;2023-04-30T00:02:50;99551.00;;;16.44;76.02
57376;BME280;44805;45.048;5.062;2023-04-30T00:05:15;99553.78;;;16.36;76.27
57376;BME280;44805;45.048;5.062;2023-04-30T00:07:41;99561.81;;;16.42;75.43
57376;BME280;44805;45.048;5.062;2023-04-30T00:10:09;99562.38;;;16.59;75.44
57376;BME280;44805;45.048;5.062;2023-04-30T00:12:35;99566.94;;;16.44;75.61
57376;BME280;44805;45.048;5.062;2023-04-30T00:15:00;99562.38;;;16.59;75.72
57376;BME280;44805;45.048;5.062;2023-04-30T00:17:25;99566.66;;;16.60;75.43
57376;BME280;44805;45.048;5.062;2023-04-30T00:19:51;99565.31;;;16.71;75.27
57376;BME280;44805;45.048;5.062;2023-04-30T00:22:16;99557.75;;;16.68;75.15
57376;BME280;44805;45.048;5.062;2023-04-30T00:24:42;99552.81;;;16.65;75.43
57376;BME280;44805;45.048;5.062;2023-04-30T00:27:09;99549.34;;;16.64;75.64
57376;BME280;44805;45.048;5.062;2023-04-30T00:29:35;99555.31;;;16.73;75.29
57376;BME280;44805;45.048;5.062;2023-04-30T00:32:01;99544.44;;;16.68;75.28
57376;BME280;44805;45.048;5.062;2023-04-30T00:34:27;99546.69;;;16.64;75.84
57376;BME280;44805;45.048;5.062;2023-04-30T00:36:52;99550.47;;;16.55;75.87
57376;BME280;44805;45.048;5.062;2023-04-30T00:39:18;99549.91;;;16.60;75.49
57376;BME280;44805;45.048;5.062;2023-04-30T00:41:43;99547.06;;;16.61;74.92
57376;BME280;44805;45.048;5.062;2023-04-30T00:44:08;99545.34;;;16.54;75.56
57376;BME280;44805;45.048;5.062;2023-04-30T00:46:35;99539.16;;;16.25;76.56
57376;BME280;44805;45.048;5.062;2023-04-30T00:49:00;99538.69;;;16.36;76.51
57376;BME280;44805;45.048;5.062;2023-04-30T00:51:28;99533.97;;;16.38;76.58
57376;BME280;44805;45.048;5.062;2023-04-30T00:53:55;99536.94;;;15.86;78.72
57376;BME280;44805;45.048;5.062;2023-04-30T00:56:21;99537.97;;;16.06;77.76
57376;BME280;44805;45.048;5.062;2023-04-30T00:58:47;99540.00;;;16.04;78.23
57376;BME280;44805;45.048;5.062;2023-04-30T01:01:14;99532.66;;;16.06;77.55
57376;BME280;44805;45.048;5.062;2023-04-30T01:03:39;99531.91;;;15.91;78.96
57376;BME280;44805;45.048;5.062;2023-04-30T01:06:06;99540.28;;;15.94;78.24
57376;BME280;44805;45.048;5.062;2023-04-30T01:08:31;99532.75;;;15.76;78.74
57376;BME280;44805;45.048;5.062;2023-04-30T01:13:31;99539.09;;;15.46;79.90
57376;BME280;44805;45.048;5.062;2023-04-30T01:16:00;99536.69;;;15.66;78.93
57376;BME280;44805;45.048;5.062;2023-04-30T01:18:32;99540.44;;;15.56;79.40
57376;BME280;44805;45.048;5.062;2023-04-30T01:21:03;99551.00;;;15.50;79.41
57376;BME280;44805;45.048;5.062;2023-04-30T01:28:44;99552.00;;;15.34;79.88
57376;BME280;44805;45.048;5.062;2023-04-30T01:31:11;99542.03;;;15.21;79.79
57376;BME280;44805;45.048;5.062;2023-04-30T01:33:37;99542.03;;;15.21;80.83
57376;BME280;44805;45.048;5.062;2023-04-30T01:38:54;99531.69;;;15.26;79.63
57376;BME280;44805;45.048;5.062;2023-04-30T01:46:40;99544.06;;;15.19;80.83
57376;BME280;44805;45.048;5.062;2023-04-30T01:51:57;99551.91;;;14.97;81.57
57376;BME280;44805;45.048;5.062;2023-04-30T01:54:31;99551.19;;;15.04;81.59
57376;BME280;44805;45.048;5.062;2023-04-30T01:57:02;99542.88;;;15.07;80.78
57376;BME280;44805;45.048;5.062;2023-04-30T01:59:30;99548.97;;;14.92;81.52
57376;BME280;44805;45.048;5.062;2023-04-30T02:01:56;99547.38;;;14.83;83.25
57376;BME280;44805;45.048;5.062;2023-04-30T02:04:21;99554.50;;;14.68;83.49
57376;BME280;44805;45.048;5.062;2023-04-30T02:06:47;99543.19;;;14.74;83.67
57376;BME280;44805;45.048;5.062;2023-04-30T02:09:12;99547.69;;;14.73;83.07
57376;BME280;44805;45.048;5.062;2023-04-30T02:11:37;99550.13;;;14.75;83.58
57376;BME280;44805;45.048;5.062;2023-04-30T02:14:02;99542.00;;;14.76;83.10
57376;BME280;44805;45.048;5.062;2023-04-30T02:16:28;99546.53;;;14.68;83.32
57376;BME280;44805;45.048;5.062;2023-04-30T02:18:53;99548.84;;;14.71;82.86
57376;BME280;44805;45.048;5.062;2023-04-30T02:21:18;99553.91;;;14.58;83.48
57376;BME280;44805;45.048;5.062;2023-04-30T02:23:47;99548.28;;;14.38;83.29
57376;BME280;44805;45.048;5.062;2023-04-30T02:26:12;99549.56;;;14.42;83.31
57376;BME280;44805;45.048;5.062;2023-04-30T02:28:37;99555.09;;;14.32;83.80
57376;BME280;44805;45.048;5.062;2023-04-30T02:31:15;99545.69;;;14.29;82.76
57376;BME280;44805;45.048;5.062;2023-04-30T02:33:40;99549.09;;;14.38;82.89
57376;BME280;44805;45.048;5.062;2023-04-30T02:36:06;99554.03;;;14.41;83.12
57376;BME280;44805;45.048;5.062;2023-04-30T02:38:31;99556.03;;;14.62;82.70
57376;BME280;44805;45.048;5.062;2023-04-30T02:40:56;99560.94;;;14.50;82.00
57376;BME280;44805;45.048;5.062;2023-04-30T02:43:22;99558.16;;;14.67;82.30
57376;BME280;44805;45.048;5.062;2023-04-30T02:45:47;99550.97;;;14.52;82.77
57376;BME280;44805;45.048;5.062;2023-04-30T02:48:13;99560.06;;;14.58;81.70
57376;BME280;44805;45.048;5.062;2023-04-30T02:50:38;99562.81;;;14.65;82.46
57376;BME280;44805;45.048;5.062;2023-04-30T02:53:03;99559.59;;;14.54;82.31
57376;BME280;44805;45.048;5.062;2023-04-30T02:55:29;99567.00;;;14.59;80.76
57376;BME280;44805;45.048;5.062;2023-04-30T02:57:56;99572.00;;;14.31;82.68
57376;BME280;44805;45.048;5.062;2023-04-30T03:00:22;99566.41;;;14.49;81.01
57376;BME280;44805;45.048;5.062;2023-04-30T03:02:47;99566.19;;;14.36;81.69
57376;BME280;44805;45.048;5.062;2023-04-30T03:05:13;99429.56;;;13.57;82.49
57376;BME280;44805;45.048;5.062;2023-04-30T03:07:39;99568.19;;;14.57;82.15
57376;BME280;44805;45.048;5.062;2023-04-30T03:10:06;99568.88;;;14.50;81.30
57376;BME280;44805;45.048;5.062;2023-04-30T03:12:34;99571.03;;;14.47;82.02
57376;BME280;44805;45.048;5.062;2023-04-30T03:14:59;99569.94;;;14.41;82.31
57376;BME280;44805;45.048;5.062;2023-04-30T03:17:25;99570.97;;;14.32;81.64
57376;BME280;44805;45.048;5.062;2023-04-30T03:19:50;99575.41;;;14.40;81.77
57376;BME280;44805;45.048;5.062;2023-04-30T03:22:16;99572.41;;;14.43;81.66
57376;BME280;44805;45.048;5.062;2023-04-30T03:24:43;99579.34;;;14.44;81.30
57376;BME280;44805;45.048;5.062;2023-04-30T03:27:10;99581.28;;;14.27;81.47
57376;BME280;44805;45.048;5.062;2023-04-30T03:29:35;99581.34;;;14.19;81.43
57376;BME280;44805;45.048;5.062;2023-04-30T03:32:00;99583.00;;;14.20;82.99
57376;BME280;44805;45.048;5.062;2023-04-30T03:34:26;99585.75;;;14.26;82.06
57376;BME280;44805;45.048;5.062;2023-04-30T03:36:51;99581.03;;;14.14;81.64
57376;BME280;44805;45.048;5.062;2023-04-30T03:39:16;99592.03;;;14.02;81.95
57376;BME280;44805;45.048;5.062;2023-04-30T03:41:42;99587.41;;;14.04;81.90
57376;BME280;44805;45.048;5.062;2023-04-30T03:44:07;99588.69;;;14.08;82.75
57376;BME280;44805;45.048;5.062;2023-04-30T03:46:39;99584.75;;;14.04;82.15
57376;BME280;44805;45.048;5.062;2023-04-30T03:49:05;99582.78;;;13.98;82.28
57376;BME280;44805;45.048;5.062;2023-04-30T03:51:30;99580.66;;;13.94;82.51
57376;BME280;44805;45.048;5.062;2023-04-30T03:53:55;99582.13;;;13.96;82.51
57376;BME280;44805;45.048;5.062;2023-04-30T03:56:23;99584.63;;;13.98;81.66
57376;BME280;44805;45.048;5.062;2023-04-30T03:58:50;99579.75;;;14.09;81.21
57376;BME280;44805;45.048;5.062;2023-04-30T04:01:15;99576.91;;;14.11;81.76
57376;BME280;44805;45.048;5.062;2023-04-30T04:03:41;99582.75;;;14.06;82.74
57376;BME280;44805;45.048;5.062;2023-04-30T04:06:06;99590.28;;;13.95;82.40
57376;BME280;44805;45.048;5.062;2023-04-30T04:08:31;99589.81;;;13.83;82.63
57376;BME280;44805;45.048;5.062;2023-04-30T04:10:57;99595.16;;;13.75;82.07
57376;BME280;44805;45.048;5.062;2023-04-30T04:13:22;99593.22;;;13.60;82.56
57376;BME280;44805;45.048;5.062;2023-04-30T04:15:47;99593.03;;;13.70;82.80
57376;BME280;44805;45.048;5.062;2023-04-30T04:18:13;99595.28;;;13.81;82.69
57376;BME280;44805;45.048;5.062;2023-04-30T04:20:38;99595.16;;;13.75;82.40
57376;BME280;44805;45.048;5.062;2023-04-30T04:23:03;99595.50;;;13.72;82.90
57376;BME280;44805;45.048;5.062;2023-04-30T04:25:28;99596.56;;;13.54;83.53
57376;BME280;44805;45.048;5.062;2023-04-30T04:27:54;99587.31;;;13.50;83.85
57376;BME280;44805;45.048;5.062;2023-04-30T04:30:19;99597.06;;;13.50;84.02
57376;BME280;44805;45.048;5.062;2023-04-30T04:32:45;99595.94;;;13.44;85.09
57376;BME280;44805;45.048;5.062;2023-04-30T04:35:16;99601.53;;;13.49;84.53
57376;BME280;44805;45.048;5.062;2023-04-30T04:37:42;99607.81;;;13.56;83.66
57376;BME280;44805;45.048;5.062;2023-04-30T04:40:08;99604.22;;;13.41;84.15
57376;BME280;44805;45.048;5.062;2023-04-30T04:42:34;99610.19;;;13.27;85.70
57376;BME280;44805;45.048;5.062;2023-04-30T04:45:00;99609.19;;;13.19;85.41
57376;BME280;44805;45.048;5.062;2023-04-30T04:47:25;99609.03;;;13.21;84.67
57376;BME280;44805;45.048;5.062;2023-04-30T04:49:51;99616.50;;;12.93;85.58
57376;BME280;44805;45.048;5.062;2023-04-30T04:52:18;99618.16;;;12.94;85.71
57376;BME280;44805;45.048;5.062;2023-04-30T04:54:43;99619.97;;;13.01;85.32
57376;BME280;44805;45.048;5.062;2023-04-30T04:57:08;99610.19;;;13.02;85.40
57376;BME280;44805;45.048;5.062;2023-04-30T04:59:34;99607.88;;;13.07;85.14
57376;BME280;44805;45.048;5.062;2023-04-30T05:04:53;99617.44;;;13.24;84.86
57376;BME280;44805;45.048;5.062;2023-04-30T05:07:18;99621.72;;;13.42;83.20
57376;BME280;44805;45.048;5.062;2023-04-30T05:09:44;99621.09;;;13.32;82.91
57376;BME280;44805;45.048;5.062;2023-04-30T05:12:10;99624.09;;;13.29;84.17
57376;BME280;44805;45.048;5.062;2023-04-30T05:14:36;99623.91;;;13.30;83.52
57376;BME280;44805;45.048;5.062;2023-04-30T05:17:01;99622.19;;;13.45;81.85
57376;BME280;44805;45.048;5.062;2023-04-30T05:19:26;99623.38;;;13.43;82.37
57376;BME280;44805;45.048;5.062;2023-04-30T05:21:52;99627.53;;;13.29;82.46
57376;BME280;44805;45.048;5.062;2023-04-30T05:24:17;99623.75;;;13.32;82.74
57376;BME280;44805;45.048;5.062;2023-04-30T05:26:42;99619.78;;;13.28;83.06
57376;BME280;44805;45.048;5.062;2023-04-30T05:29:08;99627.53;;;13.21;84.02
57376;BME280;44805;45.048;5.062;2023-04-30T05:31:34;99632.28;;;13.50;81.43
57376;BME280;44805;45.048;5.062;2023-04-30T05:34:00;99631.94;;;13.53;82.46
57376;BME280;44805;45.048;5.062;2023-04-30T05:36:26;99639.66;;;13.71;80.58
57376;BME280;44805;45.048;5.062;2023-04-30T05:38:52;99632.88;;;13.77;81.47
57376;BME280;44805;45.048;5.062;2023-04-30T05:41:17;99638.38;;;13.51;82.29
57376;BME280;44805;45.048;5.062;2023-04-30T05:43:43;99634.88;;;13.66;80.95
57376;BME280;44805;45.048;5.062;2023-04-30T05:46:08;99639.25;;;13.51;82.49
57376;BME280;44805;45.048;5.062;2023-04-30T05:48:33;99633.28;;;13.49;82.33
57376;BME280;44805;45.048;5.062;2023-04-30T05:50:59;99648.13;;;13.58;82.16
57376;BME280;44805;45.048;5.062;2023-04-30T05:53:24;99644.78;;;13.73;80.50
57376;BME280;44805;45.048;5.062;2023-04-30T05:55:50;99650.75;;;13.66;80.26
57376;BME280;44805;45.048;5.062;2023-04-30T05:58:15;99643.53;;;13.52;80.91
57376;BME280;44805;45.048;5.062;2023-04-30T06:00:40;99645.69;;;13.40;81.77
57376;BME280;44805;45.048;5.062;2023-04-30T06:06:09;99641.97;;;13.74;80.80
57376;BME280;44805;45.048;5.062;2023-04-30T06:08:35;99641.44;;;13.31;83.10
57376;BME280;44805;45.048;5.062;2023-04-30T06:11:00;99644.88;;;13.40;83.28
57376;BME280;44805;45.048;5.062;2023-04-30T06:13:27;99639.94;;;13.37;83.47
57376;BME280;44805;45.048;5.062;2023-04-30T06:15:53;99647.50;;;13.40;82.33
57376;BME280;44805;45.048;5.062;2023-04-30T06:18:18;99647.50;;;13.56;81.97
57376;BME280;44805;45.048;5.062;2023-04-30T06:20:44;99639.22;;;13.59;81.29
57376;BME280;44805;45.048;5.062;2023-04-30T06:23:09;99643.13;;;13.72;81.23
57376;BME280;44805;45.048;5.062;2023-04-30T06:25:34;99643.97;;;14.03;80.83
57376;BME280;44805;45.048;5.062;2023-04-30T06:28:02;99649.31;;;13.95;80.34
57376;BME280;44805;45.048;5.062;2023-04-30T06:30:28;99648.56;;;13.78;81.06
57376;BME280;44805;45.048;5.062;2023-04-30T06:32:55;99657.16;;;13.80;81.06
57376;BME280;44805;45.048;5.062;2023-04-30T06:35:20;99658.66;;;14.14;79.52
57376;BME280;44805;45.048;5.062;2023-04-30T06:37:46;99658.13;;;14.19;79.41
57376;BME280;44805;45.048;5.062;2023-04-30T06:40:11;99658.34;;;14.09;80.00
57376;BME280;44805;45.048;5.062;2023-04-30T06:42:36;99652.53;;;14.14;80.40
57376;BME280;44805;45.048;5.062;2023-04-30T06:45:02;99657.56;;;14.00;80.10
57376;BME280;44805;45.048;5.062;2023-04-30T06:47:29;99664.50;;;14.01;80.50
57376;BME280;44805;45.048;5.062;2023-04-30T06:49:58;99665.84;;;13.97;80.98
57376;BME280;44805;45.048;5.062;2023-04-30T06:52:23;99672.03;;;14.21;78.91
57376;BME280;44805;45.048;5.062;2023-04-30T06:54:49;99670.84;;;13.92;80.77
57376;BME280;44805;45.048;5.062;2023-04-30T06:57:14;99672.56;;;13.77;79.28
57376;BME280;44805;45.048;5.062;2023-04-30T06:59:39;99679.13;;;13.81;80.57
57376;BME280;44805;45.048;5.062;2023-04-30T07:05:07;99664.69;;;13.92;79.41
57376;BME280;44805;45.048;5.062;2023-04-30T07:07:33;99668.63;;;14.04;79.99
57376;BME280;44805;45.048;5.062;2023-04-30T07:09:58;99677.47;;;14.27;78.42
57376;BME280;44805;45.048;5.062;2023-04-30T07:12:24;99665.84;;;14.28;78.28
57376;BME280;44805;45.048;5.062;2023-04-30T07:14:49;99667.94;;;14.41;78.03
57376;BME280;44805;45.048;5.062;2023-04-30T07:17:33;99666.63;;;14.37;78.34
57376;BME280;44805;45.048;5.062;2023-04-30T07:19:59;99674.34;;;14.47;78.02
57376;BME280;44805;45.048;5.062;2023-04-30T07:22:24;99682.53;;;14.68;77.18
57376;BME280;44805;45.048;5.062;2023-04-30T07:24:49;99677.63;;;14.80;76.36
57376;BME280;44805;45.048;5.062;2023-04-30T07:27:15;99687.25;;;14.81;76.14
57376;BME280;44805;45.048;5.062;2023-04-30T07:29:40;99678.06;;;14.69;76.67
57376;BME280;44805;45.048;5.062;2023-04-30T07:32:05;99693.38;;;14.59;77.21
57376;BME280;44805;45.048;5.062;2023-04-30T07:34:31;99696.47;;;14.62;76.31
57376;BME280;44805;45.048;5.062;2023-04-30T07:36:56;99693.59;;;14.72;75.74
57376;BME280;44805;45.048;5.062;2023-04-30T07:39:21;99692.94;;;14.93;77.04
57376;BME280;44805;45.048;5.062;2023-04-30T07:41:46;99703.34;;;15.17;75.77
57376;BME280;44805;45.048;5.062;2023-04-30T07:44:12;99699.31;;;14.84;75.22
57376;BME280;44805;45.048;5.062;2023-04-30T07:46:37;99696.75;;;15.13;75.20
57376;BME280;44805;45.048;5.062;2023-04-30T07:49:02;99696.94;;;15.12;75.33
57376;BME280;44805;45.048;5.062;2023-04-30T07:51:28;99701.22;;;15.13;74.85
57376;BME280;44805;45.048;5.062;2023-04-30T07:53:53;99699.03;;;15.02;72.27
57376;BME280;44805;45.048;5.062;2023-04-30T07:56:19;99701.09;;;15.29;72.24
57376;BME280;44805;45.048;5.062;2023-04-30T07:58:45;99712.19;;;15.48;71.72
57376;BME280;44805;45.048;5.062;2023-04-30T08:01:11;99711.84;;;15.66;71.09
57376;BME280;44805;45.048;5.062;2023-04-30T08:06:39;99701.50;;;15.56;71.09
57376;BME280;44805;45.048;5.062;2023-04-30T08:09:04;99700.69;;;16.00;69.88
57376;BME280;44805;45.048;5.062;2023-04-30T08:11:30;99702.53;;;15.84;69.93
57376;BME280;44805;45.048;5.062;2023-04-30T08:13:55;99702.09;;;15.96;69.53
57376;BME280;44805;45.048;5.062;2023-04-30T08:16:20;99709.78;;;16.05;68.99
57376;BME280;44805;45.048;5.062;2023-04-30T08:21:48;99714.66;;;16.38;68.08
57376;BME280;44805;45.048;5.062;2023-04-30T08:24:14;99713.94;;;16.30;68.23
57376;BME280;44805;45.048;5.062;2023-04-30T08:26:39;99708.06;;;16.49;67.92
57376;BME280;44805;45.048;5.062;2023-04-30T08:29:04;99712.75;;;16.68;66.80
57376;BME280;44805;45.048;5.062;2023-04-30T08:31:32;99713.38;;;16.49;66.68
57376;BME280;44805;45.048;5.062;2023-04-30T08:37:00;99703.78;;;16.91;66.37
57376;BME280;44805;45.048;5.062;2023-04-30T08:39:26;99718.53;;;16.72;66.23
57376;BME280;44805;45.048;5.062;2023-04-30T08:41:54;99704.56;;;16.85;66.80
57376;BME280;44805;45.048;5.062;2023-04-30T08:44:23;99707.78;;;17.02;66.55
57376;BME280;44805;45.048;5.062;2023-04-30T08:46:54;99705.34;;;17.07;66.96
57376;BME280;44805;45.048;5.062;2023-04-30T08:52:37;99716.44;;;16.89;66.98
57376;BME280;44805;45.048;5.062;2023-04-30T08:55:03;99716.84;;;17.07;66.26
57376;BME280;44805;45.048;5.062;2023-04-30T08:57:31;99715.75;;;17.02;67.05
57376;BME280;44805;45.048;5.062;2023-04-30T08:59:59;99719.28;;;17.30;66.62
57376;BME280;44805;45.048;5.062;2023-04-30T09:02:24;99718.78;;;17.20;66.06
57376;BME280;44805;45.048;5.062;2023-04-30T09:04:50;99716.41;;;16.67;66.79
57376;BME280;44805;45.048;5.062;2023-04-30T09:07:15;99716.47;;;17.10;65.44
57376;BME280;44805;45.048;5.062;2023-04-30T09:09:42;99716.31;;;17.19;65.28
57376;BME280;44805;45.048;5.062;2023-04-30T09:12:14;99724.16;;;17.55;65.12
57376;BME280;44805;45.048;5.062;2023-04-30T09:14:56;99720.63;;;17.20;64.25
57376;BME280;44805;45.048;5.062;2023-04-30T09:17:21;99719.88;;;17.26;65.06
57376;BME280;44805;45.048;5.062;2023-04-30T09:19:47;99718.84;;;17.27;63.92
57376;BME280;44805;45.048;5.062;2023-04-30T09:22:19;99716.78;;;17.50;64.51
57376;BME280;44805;45.048;5.062;2023-04-30T09:24:45;99720.03;;;17.52;64.85
57376;BME280;44805;45.048;5.062;2023-04-30T09:27:19;99723.66;;;17.38;64.68
57376;BME280;44805;45.048;5.062;2023-04-30T09:29:45;99727.06;;;17.32;63.87
57376;BME280;44805;45.048;5.062;2023-04-30T09:32:10;99724.13;;;17.20;64.02
57376;BME280;44805;45.048;5.062;2023-04-30T09:34:36;99735.34;;;17.16;64.34
57376;BME280;44805;45.048;5.062;2023-04-30T09:37:01;99730.75;;;17.09;64.17
57376;BME280;44805;45.048;5.062;2023-04-30T09:39:28;99718.09;;;17.11;63.78
57376;BME280;44805;45.048;5.062;2023-04-30T09:42:05;99724.69;;;17.16;64.53
57376;BME280;44805;45.048;5.062;2023-04-30T09:44:35;99719.72;;;17.34;63.24
57376;BME280;44805;45.048;5.062;2023-04-30T09:47:00;99720.53;;;17.34;62.80
57376;BME280;44805;45.048;5.062;2023-04-30T09:49:27;99717.28;;;17.39;61.01
57376;BME280;44805;45.048;5.062;2023-04-30T09:52:01;99717.63;;;17.57;63.00
57376;BME280;44805;45.048;5.062;2023-04-30T09:54:28;99718.56;;;17.78;62.11
57376;BME280;44805;45.048;5.062;2023-04-30T09:56:53;99713.59;;;17.96;62.80
57376;BME280;44805;45.048;5.062;2023-04-30T12:05:51;99633.38;;;18.26;61.21
57376;BME280;44805;45.048;5.062;2023-04-30T12:08:18;99561.59;;;18.05;60.61
57376;BME280;44805;45.048;5.062;2023-04-30T12:10:43;99588.53;;;18.63;59.78
57376;BME280;44805;45.048;5.062;2023-04-30T12:13:13;99557.78;;;18.80;59.58
57376;BME280;44805;45.048;5.062;2023-04-30T12:15:39;99618.72;;;18.97;58.39
57376;BME280;44805;45.048;5.062;2023-04-30T12:18:12;99570.06;;;18.68;57.88
57376;BME280;44805;45.048;5.062;2023-04-30T12:20:38;99672.69;;;19.39;58.81
57376;BME280;44805;45.048;5.062;2023-04-30T12:23:05;99612.72;;;19.35;58.11
57376;BME280;44805;45.048;5.062;2023-04-30T12:25:39;99665.38;;;19.92;57.51
57376;BME280;44805;45.048;5.062;2023-04-30T12:28:06;99610.00;;;19.48;56.63
57376;BME280;44805;45.048;5.062;2023-04-30T12:30:31;99670.59;;;19.41;56.65
57376;BME280;44805;45.048;5.062;2023-04-30T12:33:01;99664.06;;;19.37;57.99
57376;BME280;44805;45.048;5.062;2023-04-30T12:35:29;99620.13;;;18.93;58.42
57376;BME280;44805;45.048;5.062;2023-04-30T12:38:04;99658.53;;;19.05;58.08
57376;BME280;44805;45.048;5.062;2023-04-30T12:40:30;99605.75;;;19.00;57.91
57376;BME280;44805;45.048;5.062;2023-04-30T12:43:01;99667.94;;;19.27;57.53
57376;BME280;44805;45.048;5.062;2023-04-30T12:45:52;99665.25;;;19.47;57.76
57376;BME280;44805;45.048;5.062;2023-04-30T12:48:24;99543.19;;;18.90;56.44
57376;BME280;44805;45.048;5.062;2023-04-30T12:50:57;99558.97;;;18.64;56.49
57376;BME280;44805;45.048;5.062;2023-04-30T12:53:27;99599.97;;;19.37;56.14
57376;BME280;44805;45.048;5.062;2023-04-30T12:56:25;99558.75;;;19.13;56.94
57376;BME280;44805;45.048;5.062;2023-04-30T12:58:53;99575.38;;;19.08;57.62
57376;BME280;44805;45.048;5.062;2023-04-30T13:01:20;99623.16;;;19.43;56.51
57376;BME280;44805;45.048;5.062;2023-04-30T13:03:50;99617.13;;;19.74;55.46
57376;BME280;44805;45.048;5.062;2023-04-30T13:06:15;99597.94;;;19.39;56.15
57376;BME280;44805;45.048;5.062;2023-04-30T13:08:42;99562.66;;;19.23;57.21
57376;BME280;44805;45.048;5.062;2023-04-30T13:11:08;99660.09;;;19.72;57.39
57376;BME280;44805;45.048;5.062;2023-04-30T13:13:36;99631.41;;;19.35;57.24
57376;BME280;44805;45.048;5.062;2023-04-30T13:16:01;99622.41;;;19.09;57.25
57376;BME280;44805;45.048;5.062;2023-04-30T13:18:31;99561.84;;;18.56;57.63
57376;BME280;44805;45.048;5.062;2023-04-30T13:20:59;99564.31;;;18.51;58.11
57376;BME280;44805;45.048;5.062;2023-04-30T13:23:24;99617.69;;;18.84;57.40
57376;BME280;44805;45.048;5.062;2023-04-30T13:25:50;99541.75;;;18.60;56.83
57376;BME280;44805;45.048;5.062;2023-04-30T13:28:16;99632.03;;;19.17;56.57
57376;BME280;44805;45.048;5.062;2023-04-30T13:30:41;99554.91;;;18.89;58.20
57376;BME280;44805;45.048;5.062;2023-04-30T13:33:07;99605.75;;;19.34;56.96
57376;BME280;44805;45.048;5.062;2023-04-30T13:35:35;99566.78;;;19.06;55.67
57376;BME280;44805;45.048;5.062;2023-04-30T13:38:00;99610.03;;;19.41;55.10
57376;BME280;44805;45.048;5.062;2023-04-30T13:40:26;99605.75;;;19.34;55.36
57376;BME280;44805;45.048;5.062;2023-04-30T13:42:52;99553.59;;;19.24;55.86
57376;BME280;44805;45.048;5.062;2023-04-30T13:45:17;99571.72;;;19.74;53.95
57376;BME280;44805;45.048;5.062;2023-04-30T13:47:43;99583.84;;;19.77;54.54
57376;BME280;44805;45.048;5.062;2023-04-30T13:50:11;99603.34;;;19.84;53.64
57376;BME280;44805;45.048;5.062;2023-04-30T13:52:36;99640.28;;;20.00;54.38
57376;BME280;44805;45.048;5.062;2023-04-30T13:55:02;99569.63;;;19.24;53.90
57376;BME280;44805;45.048;5.062;2023-04-30T13:57:29;99582.34;;;19.16;54.53
57376;BME280;44805;45.048;5.062;2023-04-30T13:59:57;99578.03;;;19.21;53.79
57376;BME280;44805;45.048;5.062;2023-04-30T14:02:23;99603.88;;;19.27;54.33
57376;BME280;44805;45.048;5.062;2023-04-30T14:08:12;99565.09;;;19.32;54.75
57376;BME280;44805;45.048;5.062;2023-04-30T14:10:38;99585.81;;;19.94;53.60
57376;BME280;44805;45.048;5.062;2023-04-30T14:13:04;99524.94;;;19.58;53.03
57376;BME280;44805;45.048;5.062;2023-04-30T14:15:32;99603.94;;;19.86;52.88
57376;BME280;44805;45.048;5.062;2023-04-30T14:17:58;99562.19;;;19.33;53.76
57376;BME280;44805;45.048;5.062;2023-04-30T14:20:26;99602.78;;;19.55;54.19
57376;BME280;44805;45.048;5.062;2023-04-30T14:22:52;99529.38;;;19.19;54.11
57376;BME280;44805;45.048;5.062;2023-04-30T14:25:23;99528.81;;;18.97;55.33
57376;BME280;44805;45.048;5.062;2023-04-30T14:27:48;99574.19;;;18.91;53.57
57376;BME280;44805;45.048;5.062;2023-04-30T14:30:14;99540.56;;;18.83;52.12
57376;BME280;44805;45.048;5.062;2023-04-30T14:32:39;99604.50;;;19.29;54.18
57376;BME280;44805;45.048;5.062;2023-04-30T14:35:06;99598.28;;;19.56;55.06
57376;BME280;44805;45.048;5.062;2023-04-30T14:37:31;99600.78;;;19.37;53.88
57376;BME280;44805;45.048;5.062;2023-04-30T14:39:57;99583.22;;;18.96;53.66
57376;BME280;44805;45.048;5.062;2023-04-30T14:42:27;99512.44;;;18.47;54.66
57376;BME280;44805;45.048;5.062;2023-04-30T14:45:02;99640.38;;;19.53;55.78
57376;BME280;44805;45.048;5.062;2023-04-30T14:47:30;99533.13;;;18.72;54.73
57376;BME280;44805;45.048;5.062;2023-04-30T14:50:04;99601.41;;;19.33;53.93
57376;BME280;44805;45.048;5.062;2023-04-30T14:52:39;99527.59;;;18.86;52.85
57376;BME280;44805;45.048;5.062;2023-04-30T14:55:06;99520.22;;;18.89;53.40
57376;BME280;44805;45.048;5.062;2023-04-30T14:57:34;99523.25;;;19.12;53.26
57376;BME280;44805;45.048;5.062;2023-04-30T15:00:06;99580.22;;;19.51;52.49
57376;BME280;44805;45.048;5.062;2023-04-30T15:02:42;99630.53;;;19.67;52.27
57376;BME280;44805;45.048;5.062;2023-04-30T15:05:07;99640.19;;;19.55;53.07
57376;BME280;44805;45.048;5.062;2023-04-30T15:07:36;99566.78;;;19.06;54.54
57376;BME280;44805;45.048;5.062;2023-04-30T15:10:02;99636.50;;;19.43;53.23
57376;BME280;44805;45.048;5.062;2023-04-30T15:12:28;99522.69;;;18.70;52.85
57376;BME280;44805;45.048;5.062;2023-04-30T15:14:53;99570.47;;;18.92;53.01
57376;BME280;44805;45.048;5.062;2023-04-30T15:17:19;99580.53;;;18.90;52.72
57376;BME280;44805;45.048;5.062;2023-04-30T15:19:47;99570.47;;;18.72;53.99
57376;BME280;44805;45.048;5.062;2023-04-30T15:22:13;99561.66;;;18.84;54.71
57376;BME280;44805;45.048;5.062;2023-04-30T15:24:40;99627.09;;;19.20;53.26
57376;BME280;44805;45.048;5.062;2023-04-30T15:27:05;99560.41;;;18.67;53.09
57376;BME280;44805;45.048;5.062;2023-04-30T15:29:31;99515.91;;;18.21;53.75
57376;BME280;44805;45.048;5.062;2023-04-30T15:31:56;99523.28;;;18.12;54.21
57376;BME280;44805;45.048;5.062;2023-04-30T15:34:23;99554.06;;;18.35;54.59
57376;BME280;44805;45.048;5.062;2023-04-30T15:36:52;99609.66;;;18.71;52.46
57376;BME280;44805;45.048;5.062;2023-04-30T15:39:18;99561.25;;;18.48;53.39
57376;BME280;44805;45.048;5.062;2023-04-30T15:41:46;99588.56;;;18.76;53.95
57376;BME280;44805;45.048;5.062;2023-04-30T15:44:11;99563.25;;;18.39;55.43
57376;BME280;44805;45.048;5.062;2023-04-30T15:46:37;99572.09;;;18.39;53.97